To NAV CANADA Home Page Login to a new session Search on AWWS site Disclaimer Vers la page française équivalente Tips FAQ What's new on the site To the Forecasts and Observations / NOTAM section To "File a Flight Plan" website Publications and other links Update of the User's profile FIC Telephone Numbers My Weather Data Folder Route Weather Data Regional Weather Data Local Weather Data To the Forecasts and Observations / NOTAM section
Request Generated 03/19/2019 at 23:14:19 UTC . Weather information available at that time is displayed.

METAR/TAF

THE PAS/MB    (show WxCam)

METAR CYQD 192300Z AUTO 32010G19KT 9SM CLR 07/M02 A2984 RMK SLP120=
METAR CYQD 192200Z AUTO 32012G19KT 9SM CLR 08/M02 A2982 RMK SLP113=
METAR CYQD 192100Z AUTO 32012G20KT 9SM CLR 08/M02 A2981 RMK SLP107=

TAF CYQD 191838Z 1919/2007 29015G25KT P6SM FEW200
BECMG 2001/2003 35010KT
RMK FCST BASED ON AUTO OBS. NXT FCST BY 200100Z=
Your time UTC time
Weather data provided by Environment Canada and NAV CANADA